createdAt,value
2019-05-23T00:00:36.944Z,99.90
2019-05-23T00:03:06.306Z,99.90
2019-05-23T00:05:47.627Z,99.90
2019-05-23T00:08:16.956Z,99.90
2019-05-23T00:10:46.616Z,99.90
2019-05-23T00:13:25.236Z,99.90
2019-05-23T00:15:53.824Z,99.90
2019-05-23T00:18:22.302Z,99.90
2019-05-23T00:20:51.524Z,99.90
2019-05-23T00:23:19.436Z,99.90
2019-05-23T00:25:49.253Z,99.90
2019-05-23T00:28:17.372Z,99.90
2019-05-23T00:30:46.761Z,99.90
2019-05-23T00:33:16.616Z,99.90
2019-05-23T00:35:44.363Z,99.90
2019-05-23T00:38:13.345Z,99.90
2019-05-23T00:40:43.152Z,99.90
2019-05-23T00:43:11.144Z,99.90
2019-05-23T00:45:38.894Z,99.90
2019-05-23T00:48:07.572Z,99.90
2019-05-23T00:50:35.720Z,99.90
2019-05-23T00:53:03.500Z,99.90
2019-05-23T00:55:31.267Z,99.90
2019-05-23T00:57:59.295Z,99.90
2019-05-23T01:00:27.343Z,99.90
2019-05-23T01:02:56.764Z,99.90
2019-05-23T01:05:25.746Z,99.90
2019-05-23T01:07:53.872Z,99.90
2019-05-23T01:10:22.278Z,99.90
2019-05-23T01:12:50.004Z,99.90
2019-05-23T01:15:18.528Z,99.90
2019-05-23T01:17:47.655Z,99.90
2019-05-23T01:20:33.820Z,99.90
2019-05-23T01:23:03.149Z,99.90
2019-05-23T01:25:33.036Z,99.90
2019-05-23T01:28:01.000Z,99.90
2019-05-23T01:30:36.636Z,99.90
2019-05-23T01:33:04.402Z,99.90
2019-05-23T01:35:33.703Z,99.90
2019-05-23T01:38:04.174Z,99.90
2019-05-23T01:40:31.675Z,99.90
2019-05-23T01:42:59.821Z,99.90
2019-05-23T01:45:27.541Z,99.90
2019-05-23T01:47:55.218Z,99.90
2019-05-23T01:50:23.631Z,99.90
2019-05-23T01:52:51.579Z,99.90
2019-05-23T01:55:19.363Z,99.90
2019-05-23T01:57:47.594Z,99.90
2019-05-23T02:00:18.121Z,99.90
2019-05-23T02:02:46.671Z,99.90
2019-05-23T02:05:15.251Z,99.90
2019-05-23T02:07:43.540Z,99.90
2019-05-23T02:10:12.499Z,99.90
2019-05-23T02:12:40.693Z,99.90
2019-05-23T02:15:09.313Z,99.90
2019-05-23T02:17:37.501Z,99.90
2019-05-23T02:20:06.714Z,99.90
2019-05-23T02:22:35.029Z,99.90
2019-05-23T02:25:02.795Z,99.90
2019-05-23T02:27:31.402Z,99.90
2019-05-23T02:29:59.496Z,99.90
2019-05-23T02:32:27.524Z,99.90
2019-05-23T02:34:55.671Z,99.90
2019-05-23T02:37:28.108Z,99.90
2019-05-23T02:40:03.475Z,99.90
2019-05-23T02:42:38.216Z,99.90
2019-05-23T02:45:07.836Z,99.90
2019-05-23T02:47:43.802Z,99.90
2019-05-23T02:50:25.984Z,99.90
2019-05-23T02:52:54.288Z,99.90
2019-05-23T02:55:23.568Z,99.90
2019-05-23T02:57:51.957Z,99.90
2019-05-23T03:00:32.085Z,99.90
2019-05-23T03:03:00.096Z,99.90
2019-05-23T03:05:27.776Z,99.90
2019-05-23T03:07:58.622Z,99.90
2019-05-23T03:10:28.560Z,99.90
2019-05-23T03:12:56.918Z,99.90
2019-05-23T03:15:27.674Z,99.90
2019-05-23T03:17:55.482Z,99.90
2019-05-23T03:20:23.803Z,99.90
2019-05-23T03:22:56.167Z,99.90
2019-05-23T03:25:31.509Z,99.90
2019-05-23T03:28:00.843Z,99.90
2019-05-23T03:30:33.127Z,99.90
2019-05-23T03:33:02.452Z,99.90
2019-05-23T03:35:31.943Z,99.90
2019-05-23T03:38:00.073Z,99.90
2019-05-23T03:40:27.980Z,99.90
2019-05-23T03:42:55.681Z,99.90
2019-05-23T03:45:27.779Z,99.90
2019-05-23T03:47:55.491Z,99.90
2019-05-23T03:50:24.613Z,99.90
2019-05-23T03:52:52.660Z,99.90
2019-05-23T03:55:21.772Z,99.90
2019-05-23T03:57:50.147Z,99.90
2019-05-23T04:00:19.543Z,99.90
2019-05-23T04:02:49.232Z,99.90
2019-05-23T04:05:17.213Z,99.90
2019-05-23T04:07:45.577Z,99.90
2019-05-23T04:10:13.489Z,99.90
2019-05-23T04:12:41.540Z,99.90
2019-05-23T04:15:11.027Z,99.90
2019-05-23T04:17:38.716Z,99.90
2019-05-23T04:20:07.595Z,99.90
2019-05-23T04:22:35.922Z,99.90
2019-05-23T04:25:07.412Z,99.90
2019-05-23T04:27:35.171Z,99.90
2019-05-23T04:30:03.382Z,99.90
2019-05-23T04:32:31.236Z,99.90
2019-05-23T04:35:01.705Z,99.90
2019-05-23T04:37:29.508Z,99.90
2019-05-23T04:39:57.620Z,99.90
2019-05-23T04:42:25.268Z,99.90
2019-05-23T04:44:52.956Z,99.90
2019-05-23T04:47:21.172Z,99.90
2019-05-23T04:49:49.341Z,99.90
2019-05-23T04:52:24.494Z,99.90
2019-05-23T04:54:52.203Z,99.90
2019-05-23T04:57:21.891Z,99.90
2019-05-23T04:59:50.153Z,99.90
2019-05-23T05:02:26.385Z,99.90
2019-05-23T05:04:47.732Z,99.90
2019-05-23T05:07:15.385Z,99.90
2019-05-23T05:09:43.138Z,99.90
2019-05-23T05:12:12.418Z,99.90
2019-05-23T05:14:40.335Z,99.90
2019-05-23T05:17:08.151Z,99.90
2019-05-23T05:19:35.903Z,99.90
2019-05-23T05:22:03.619Z,99.90
2019-05-23T05:24:31.310Z,99.90
2019-05-23T05:26:58.955Z,99.90
2019-05-23T05:29:26.666Z,99.90
2019-05-23T05:31:54.899Z,99.90
2019-05-23T05:34:22.659Z,99.90
2019-05-23T05:36:50.339Z,99.90
2019-05-23T05:39:19.319Z,99.90
2019-05-23T05:41:47.041Z,99.90
2019-05-23T05:44:14.724Z,99.90
2019-05-23T05:46:42.645Z,99.90
2019-05-23T05:49:11.035Z,99.90
2019-05-23T05:51:38.675Z,99.90
2019-05-23T05:54:07.173Z,99.90
2019-05-23T05:56:34.887Z,99.90
2019-05-23T05:59:02.649Z,99.90
2019-05-23T06:01:34.369Z,99.90
2019-05-23T06:04:01.620Z,99.90
2019-05-23T06:06:31.174Z,99.90
2019-05-23T06:09:03.399Z,99.80
2019-05-23T06:11:31.325Z,99.90
2019-05-23T06:13:58.960Z,99.80
2019-05-23T06:16:26.643Z,99.50
2019-05-23T06:18:54.823Z,99.40
2019-05-23T06:21:23.985Z,98.50
2019-05-23T06:23:51.732Z,98.50
2019-05-23T06:26:19.412Z,98.90
2019-05-23T06:28:47.319Z,98.20
2019-05-23T06:31:16.052Z,98.00
2019-05-23T06:33:44.180Z,98.20
2019-05-23T06:36:12.096Z,96.20
2019-05-23T06:38:40.830Z,96.80
2019-05-23T06:41:08.955Z,96.90
2019-05-23T06:43:37.195Z,97.30
2019-05-23T06:46:05.144Z,97.20
2019-05-23T06:48:33.527Z,96.90
2019-05-23T06:51:01.479Z,95.00
2019-05-23T06:53:29.121Z,94.40
2019-05-23T06:55:56.844Z,94.60
2019-05-23T06:58:24.976Z,95.40
2019-05-23T07:00:52.809Z,96.00
2019-05-23T07:03:20.524Z,94.90
2019-05-23T07:05:48.383Z,93.60
2019-05-23T07:08:16.310Z,93.90
2019-05-23T07:10:44.808Z,92.20
2019-05-23T07:13:13.203Z,94.40
2019-05-23T07:15:40.883Z,93.10
2019-05-23T07:18:08.532Z,94.70
2019-05-23T07:20:37.080Z,93.00
2019-05-23T07:23:04.796Z,93.10
2019-05-23T07:25:32.552Z,92.70
2019-05-23T07:28:00.394Z,93.00
2019-05-23T07:30:28.158Z,93.90
2019-05-23T07:32:56.568Z,93.30
2019-05-23T07:35:25.868Z,93.50
2019-05-23T07:37:53.811Z,93.40
2019-05-23T07:40:22.638Z,92.70
2019-05-23T07:42:50.481Z,94.20
2019-05-23T07:45:20.339Z,94.20
2019-05-23T07:47:48.095Z,92.00
2019-05-23T07:50:15.804Z,92.00
2019-05-23T07:52:43.832Z,92.20
2019-05-23T07:55:13.584Z,92.70
2019-05-23T07:57:41.352Z,93.30
2019-05-23T08:00:12.096Z,93.10
2019-05-23T08:02:40.769Z,92.00
2019-05-23T08:05:10.521Z,90.70
2019-05-23T08:07:38.653Z,92.10
2019-05-23T08:10:08.140Z,92.60
2019-05-23T08:12:36.185Z,92.10
2019-05-23T08:15:05.433Z,92.50
2019-05-23T08:17:33.188Z,92.30
2019-05-23T08:20:00.823Z,92.30
2019-05-23T08:22:28.860Z,90.60
2019-05-23T08:24:56.503Z,90.90
2019-05-23T08:27:24.613Z,91.90
2019-05-23T08:29:52.519Z,92.00
2019-05-23T08:32:20.648Z,91.50
2019-05-23T08:34:48.362Z,91.00
2019-05-23T08:37:16.052Z,91.60
2019-05-23T08:39:44.365Z,91.10
2019-05-23T08:42:12.704Z,90.10
2019-05-23T08:44:41.072Z,90.70
2019-05-23T08:47:09.663Z,90.80
2019-05-23T08:49:37.712Z,91.20
2019-05-23T08:52:05.650Z,91.80
2019-05-23T08:54:33.642Z,91.50
2019-05-23T08:57:01.699Z,90.90
2019-05-23T08:59:30.080Z,91.50
2019-05-23T09:01:57.990Z,90.40
2019-05-23T09:04:26.146Z,91.40
2019-05-23T09:06:55.462Z,90.90
2019-05-23T09:09:29.763Z,90.80
2019-05-23T09:11:53.670Z,92.30
2019-05-23T09:14:21.526Z,90.70
2019-05-23T09:16:49.160Z,91.00
2019-05-23T09:19:16.912Z,91.00
2019-05-23T09:21:44.560Z,90.10
2019-05-23T09:24:12.504Z,88.10
2019-05-23T09:26:40.146Z,90.20
2019-05-23T09:29:08.091Z,89.90
2019-05-23T09:31:35.743Z,89.50
2019-05-23T09:34:03.424Z,87.70
2019-05-23T09:36:31.067Z,89.00
2019-05-23T09:38:58.747Z,87.00
2019-05-23T09:41:26.413Z,86.60
2019-05-23T09:43:54.089Z,84.20
2019-05-23T09:46:21.899Z,83.10
2019-05-23T09:48:49.656Z,83.80
2019-05-23T09:51:17.472Z,86.70
2019-05-23T09:53:47.430Z,87.60
2019-05-23T09:56:14.801Z,83.00
2019-05-23T09:58:42.542Z,81.30
2019-05-23T10:01:10.191Z,80.80
2019-05-23T10:03:37.938Z,81.10
2019-05-23T10:06:05.586Z,81.10
2019-05-23T10:08:33.269Z,81.90
2019-05-23T10:11:00.977Z,80.40
2019-05-23T10:13:38.298Z,80.40
2019-05-23T10:16:05.701Z,78.60
2019-05-23T10:18:33.432Z,79.50
2019-05-23T10:21:01.251Z,77.80
2019-05-23T10:23:28.995Z,77.00
2019-05-23T10:25:56.666Z,79.60
2019-05-23T10:28:24.366Z,79.50
2019-05-23T10:30:52.058Z,81.80
2019-05-23T10:33:19.761Z,80.60
2019-05-23T10:35:59.595Z,78.20
2019-05-23T10:38:17.379Z,80.50
2019-05-23T10:40:45.319Z,76.80
2019-05-23T10:43:13.135Z,76.60
2019-05-23T10:45:41.505Z,76.80
2019-05-23T10:48:10.096Z,77.30
2019-05-23T10:50:44.756Z,75.30
2019-05-23T10:53:07.294Z,74.40
2019-05-23T10:55:35.046Z,74.30
2019-05-23T10:58:03.339Z,76.00
2019-05-23T11:00:32.650Z,76.90
2019-05-23T11:03:00.559Z,73.80
2019-05-23T11:05:28.243Z,76.40
2019-05-23T11:07:56.049Z,74.10
2019-05-23T11:10:24.268Z,70.20
2019-05-23T11:12:51.916Z,73.50
2019-05-23T11:15:19.597Z,69.20
2019-05-23T11:17:47.265Z,70.40
2019-05-23T11:20:15.451Z,73.40
2019-05-23T11:22:43.102Z,71.20
2019-05-23T11:25:11.531Z,73.20
2019-05-23T11:27:39.811Z,74.70
2019-05-23T11:30:12.680Z,71.50
2019-05-23T11:32:40.768Z,73.30
2019-05-23T11:35:08.576Z,73.10
2019-05-23T11:37:36.287Z,74.00
2019-05-23T11:40:05.035Z,75.70
2019-05-23T11:42:32.680Z,70.20
2019-05-23T11:45:00.368Z,71.30
2019-05-23T11:47:31.823Z,73.50
2019-05-23T11:49:57.808Z,70.40
2019-05-23T11:52:25.458Z,73.00
2019-05-23T11:54:53.179Z,71.40
2019-05-23T11:57:21.005Z,71.40
2019-05-23T11:59:49.116Z,71.50
2019-05-23T12:02:30.540Z,70.30
2019-05-23T12:04:59.960Z,70.00
2019-05-23T12:07:29.371Z,73.70
2019-05-23T12:09:57.063Z,72.80
2019-05-23T12:12:25.136Z,73.30
2019-05-23T12:14:53.080Z,71.20
2019-05-23T12:17:21.332Z,70.60
2019-05-23T12:19:49.063Z,72.20
2019-05-23T12:22:18.049Z,69.90
2019-05-23T12:24:45.772Z,71.50
2019-05-23T12:27:14.396Z,72.00
2019-05-23T12:29:42.040Z,71.40
2019-05-23T12:32:11.429Z,65.60
2019-05-23T12:34:42.707Z,68.80
2019-05-23T12:37:19.995Z,66.80
2019-05-23T12:39:40.268Z,67.10
2019-05-23T12:42:08.012Z,67.60
2019-05-23T12:44:35.656Z,67.50
2019-05-23T12:47:05.559Z,70.50
2019-05-23T12:49:37.831Z,71.60
2019-05-23T12:52:06.548Z,68.60
2019-05-23T12:54:34.374Z,70.20
2019-05-23T12:57:02.726Z,72.00
2019-05-23T12:59:30.431Z,71.60
2019-05-23T13:01:59.380Z,70.40
2019-05-23T13:04:27.014Z,66.30
2019-05-23T13:06:55.272Z,66.80
2019-05-23T13:09:22.979Z,69.00
2019-05-23T13:11:50.949Z,65.60
2019-05-23T13:14:19.564Z,68.90
2019-05-23T13:16:47.815Z,68.50
2019-05-23T13:19:15.749Z,64.30
2019-05-23T13:21:43.487Z,65.60
2019-05-23T13:24:11.315Z,69.30
2019-05-23T13:26:39.070Z,67.50
2019-05-23T13:29:06.839Z,66.90
2019-05-23T13:31:34.832Z,67.10
2019-05-23T13:34:02.553Z,63.10
2019-05-23T13:36:32.659Z,64.40
2019-05-23T13:39:01.293Z,64.00
2019-05-23T13:41:29.256Z,64.70
2019-05-23T13:43:57.191Z,65.10
2019-05-23T13:46:25.086Z,63.70
2019-05-23T13:48:52.928Z,65.60
2019-05-23T13:51:20.603Z,63.00
2019-05-23T13:53:48.344Z,61.60
2019-05-23T13:56:17.240Z,65.60
2019-05-23T13:58:45.187Z,66.40
2019-05-23T14:01:13.010Z,60.40
2019-05-23T14:03:42.396Z,61.80
2019-05-23T14:06:10.935Z,61.50
2019-05-23T14:09:16.072Z,63.50
2019-05-23T14:11:43.871Z,60.00
2019-05-23T14:14:11.822Z,63.00
2019-05-23T14:17:03.544Z,64.10
2019-05-23T14:19:31.415Z,61.50
2019-05-23T14:21:59.192Z,61.50
2019-05-23T14:24:27.121Z,61.90
2019-05-23T14:26:59.098Z,59.80
2019-05-23T14:29:26.772Z,62.90
2019-05-23T14:32:12.584Z,63.00
2019-05-23T14:34:40.362Z,60.60
2019-05-23T14:37:09.661Z,60.90
2019-05-23T14:39:38.878Z,62.30
2019-05-23T14:42:08.512Z,60.90
2019-05-23T14:44:39.480Z,60.40
2019-05-23T14:47:17.853Z,60.00
2019-05-23T14:49:56.149Z,62.20
2019-05-23T14:55:28.189Z,61.90
2019-05-23T14:57:56.142Z,61.10
2019-05-23T15:00:25.823Z,61.90
2019-05-23T15:02:53.470Z,57.40
2019-05-23T15:05:21.528Z,60.20
2019-05-23T15:07:49.159Z,60.20
2019-05-23T15:10:17.412Z,59.60
2019-05-23T15:12:45.054Z,60.90
2019-05-23T15:15:13.002Z,57.90
2019-05-23T15:17:40.655Z,60.00
2019-05-23T15:20:08.597Z,58.50
2019-05-23T15:22:36.240Z,57.30
2019-05-23T15:25:07.029Z,57.30
2019-05-23T15:27:34.834Z,58.70
2019-05-23T15:30:03.203Z,58.90
2019-05-23T15:32:30.847Z,59.10
2019-05-23T15:34:58.599Z,58.30
2019-05-23T15:37:26.318Z,57.40
2019-05-23T15:39:54.281Z,57.90
2019-05-23T15:42:22.351Z,56.10
2019-05-23T15:44:50.104Z,57.90
2019-05-23T15:47:19.511Z,55.80
2019-05-23T15:49:48.794Z,56.90
2019-05-23T15:52:20.613Z,56.70
2019-05-23T15:54:49.966Z,55.90
2019-05-23T15:57:19.298Z,55.00
2019-05-23T15:59:54.750Z,53.60
2019-05-23T16:02:24.037Z,55.00
2019-05-23T16:04:53.546Z,54.50
2019-05-23T16:07:21.216Z,54.90
2019-05-23T16:09:48.967Z,53.30
2019-05-23T16:12:16.981Z,54.10
2019-05-23T16:14:44.867Z,53.60
2019-05-23T16:17:12.988Z,56.50
2019-05-23T16:19:40.691Z,57.00
2019-05-23T16:22:08.375Z,57.20
2019-05-23T16:24:36.421Z,57.90
2019-05-23T16:27:06.361Z,57.40
2019-05-23T16:29:34.246Z,55.70
2019-05-23T16:32:02.114Z,54.20
2019-05-23T16:34:30.129Z,56.40
2019-05-23T16:36:57.803Z,53.90
2019-05-23T16:39:25.923Z,55.40
2019-05-23T16:41:53.674Z,54.80
2019-05-23T16:44:21.318Z,51.30
2019-05-23T16:46:49.344Z,52.40
2019-05-23T16:49:17.002Z,52.30
2019-05-23T16:51:44.692Z,54.00
2019-05-23T16:54:12.364Z,54.90
2019-05-23T16:56:50.849Z,54.10
2019-05-23T16:59:35.179Z,55.00
2019-05-23T17:02:06.596Z,55.00
2019-05-23T17:04:38.354Z,55.70
2019-05-23T17:07:24.053Z,56.00
2019-05-23T17:10:08.415Z,55.40
2019-05-23T17:12:33.255Z,56.10
2019-05-23T17:15:05.620Z,56.60
2019-05-23T17:17:56.890Z,54.70
2019-05-23T17:22:03.019Z,54.90
2019-05-23T17:22:54.766Z,55.90
2019-05-23T17:25:40.584Z,56.40
2019-05-23T17:28:12.677Z,55.90
2019-05-23T17:30:54.403Z,56.40
2019-05-23T17:33:22.847Z,57.70
2019-05-23T17:35:50.566Z,58.60
2019-05-23T17:38:18.565Z,57.00
2019-05-23T17:40:46.251Z,57.00
2019-05-23T17:43:13.932Z,58.50
2019-05-23T17:45:41.964Z,59.40
2019-05-23T17:48:10.077Z,59.50
2019-05-23T17:50:37.763Z,57.90
2019-05-23T17:53:05.479Z,59.40
2019-05-23T17:55:33.231Z,60.40
2019-05-23T17:58:01.255Z,57.40
2019-05-23T18:00:30.647Z,58.70
2019-05-23T18:02:58.316Z,56.50
2019-05-23T18:05:26.319Z,59.60
2019-05-23T18:07:54.015Z,59.40
2019-05-23T18:10:22.275Z,59.20
2019-05-23T18:12:50.396Z,62.90
2019-05-23T18:15:18.491Z,61.40
2019-05-23T18:17:46.977Z,64.60
2019-05-23T18:20:15.588Z,67.60
2019-05-23T18:22:44.071Z,69.70
2019-05-23T18:25:13.676Z,71.40
2019-05-23T18:27:42.297Z,71.00
2019-05-23T18:30:11.714Z,72.60
2019-05-23T18:32:39.814Z,72.90
2019-05-23T18:35:09.588Z,75.80
2019-05-23T18:37:37.616Z,75.90
2019-05-23T18:40:07.304Z,76.50
2019-05-23T18:42:35.013Z,76.90
2019-05-23T18:45:04.096Z,77.70
2019-05-23T18:47:33.515Z,78.30
2019-05-23T18:50:01.284Z,78.20
2019-05-23T18:52:29.701Z,79.10
2019-05-23T18:54:57.421Z,79.70
2019-05-23T18:57:25.418Z,81.50
2019-05-23T18:59:53.129Z,80.80
2019-05-23T19:02:21.048Z,81.10
2019-05-23T19:04:48.686Z,81.40
2019-05-23T19:07:17.136Z,83.10
2019-05-23T19:09:45.501Z,82.90
2019-05-23T19:12:13.191Z,84.50
2019-05-23T19:14:40.929Z,85.10
2019-05-23T19:17:08.862Z,85.70
2019-05-23T19:19:36.488Z,87.00
2019-05-23T19:22:05.431Z,87.40
2019-05-23T19:24:33.144Z,88.10
2019-05-23T19:27:01.188Z,88.60
2019-05-23T19:29:29.195Z,89.30
2019-05-23T19:31:57.269Z,90.50
2019-05-23T19:34:24.987Z,90.50
2019-05-23T19:36:52.684Z,90.90
2019-05-23T19:39:20.977Z,91.20
2019-05-23T19:41:48.677Z,91.40
2019-05-23T19:44:16.617Z,91.60
2019-05-23T19:46:44.579Z,91.90
2019-05-23T19:49:12.673Z,92.00
2019-05-23T19:51:40.511Z,92.00
2019-05-23T19:54:08.430Z,92.10
2019-05-23T19:56:36.480Z,92.00
2019-05-23T19:59:04.193Z,92.70
2019-05-23T20:01:33.684Z,92.00
2019-05-23T20:04:01.506Z,92.30
2019-05-23T20:06:30.588Z,92.60
2019-05-23T20:08:58.507Z,92.90
2019-05-23T20:11:26.152Z,93.00
2019-05-23T20:13:53.896Z,93.10
2019-05-23T20:16:21.543Z,93.20
2019-05-23T20:18:49.811Z,93.00
2019-05-23T20:21:18.334Z,93.20
2019-05-23T20:23:46.016Z,93.40
2019-05-23T20:26:13.723Z,93.20
2019-05-23T20:28:41.429Z,93.60
2019-05-23T20:31:09.470Z,94.00
2019-05-23T20:33:37.165Z,93.90
2019-05-23T20:36:06.467Z,94.00
2019-05-23T20:38:34.304Z,93.60
2019-05-23T20:41:01.980Z,93.60
2019-05-23T20:43:29.880Z,93.90
2019-05-23T20:45:57.530Z,94.00
2019-05-23T20:48:25.678Z,94.30
2019-05-23T20:50:53.391Z,94.50
2019-05-23T20:53:21.080Z,94.70
2019-05-23T20:55:48.723Z,94.50
2019-05-23T20:58:16.770Z,94.70
2019-05-23T21:00:49.356Z,94.90
2019-05-23T21:03:17.103Z,94.60
2019-05-23T21:05:45.207Z,94.80
2019-05-23T21:08:13.298Z,95.00
2019-05-23T21:10:42.917Z,95.20
2019-05-23T21:13:10.971Z,95.20
2019-05-23T21:15:40.902Z,95.40
2019-05-23T21:18:08.020Z,95.50
2019-05-23T21:20:35.661Z,95.40
2019-05-23T21:23:14.370Z,95.30
2019-05-23T21:25:43.688Z,95.20
2019-05-23T21:28:22.089Z,95.60
2019-05-23T21:30:49.774Z,95.70
2019-05-23T21:33:17.513Z,95.60
2019-05-23T21:35:45.155Z,95.80
2019-05-23T21:38:12.799Z,95.70
2019-05-23T21:40:41.664Z,95.60
2019-05-23T21:43:09.332Z,95.70
2019-05-23T21:45:37.150Z,96.10
2019-05-23T21:48:05.194Z,96.00
2019-05-23T21:50:33.064Z,96.00
2019-05-23T21:53:00.880Z,96.30
2019-05-23T21:55:35.570Z,96.10
2019-05-23T21:58:03.631Z,96.20
2019-05-23T22:00:40.600Z,95.90
2019-05-23T22:03:08.416Z,95.90
2019-05-23T22:05:37.144Z,95.90
2019-05-23T22:08:04.783Z,95.80
2019-05-23T22:10:32.468Z,95.50
2019-05-23T22:13:04.497Z,95.60
2019-05-23T22:15:34.226Z,95.80
2019-05-23T22:18:01.872Z,96.20
2019-05-23T22:20:29.896Z,96.50
2019-05-23T22:22:57.528Z,96.50
2019-05-23T22:25:32.187Z,96.70
2019-05-23T22:27:59.836Z,96.80
2019-05-23T22:30:27.579Z,96.60
2019-05-23T22:32:55.380Z,96.60
2019-05-23T22:35:23.551Z,96.70
2019-05-23T22:37:51.238Z,96.80
2019-05-23T22:40:18.985Z,96.50
2019-05-23T22:42:46.699Z,96.60
2019-05-23T22:45:16.053Z,96.80
2019-05-23T22:47:43.732Z,97.00
2019-05-23T22:50:11.447Z,96.80
2019-05-23T22:52:39.126Z,97.00
2019-05-23T22:55:06.944Z,96.60
2019-05-23T22:57:34.608Z,97.00
2019-05-23T23:00:02.394Z,97.40
2019-05-23T23:02:30.074Z,97.00
2019-05-23T23:04:57.715Z,97.20
2019-05-23T23:07:25.851Z,97.10
2019-05-23T23:09:53.491Z,97.10
2019-05-23T23:12:21.444Z,96.60
2019-05-23T23:14:49.203Z,96.90
2019-05-23T23:17:17.542Z,97.10
2019-05-23T23:19:45.180Z,97.30
2019-05-23T23:22:13.275Z,97.40
2019-05-23T23:24:40.917Z,97.40
2019-05-23T23:27:08.888Z,97.20
2019-05-23T23:29:36.605Z,97.20
2019-05-23T23:32:04.398Z,97.20
2019-05-23T23:34:32.499Z,97.20
2019-05-23T23:37:00.179Z,97.10
2019-05-23T23:39:28.245Z,97.30
2019-05-23T23:41:56.027Z,97.40
2019-05-23T23:44:25.306Z,97.40
2019-05-23T23:47:11.235Z,97.50
2019-05-23T23:49:56.574Z,97.70
2019-05-23T23:52:42.512Z,97.90
2019-05-23T23:55:28.036Z,97.90
2019-05-23T23:58:01.184Z,97.90
